Time;durP1;ratioP1;P1;durP2;ratioP2;P2;SDS_P1;SDS_P2;PMS_P1;PMS_P2;Temp;Humidity;BMP_temperature;BMP_pressure;BME280_temperature;BME280_humidity;BME280_pressure;Samples;Min_cycle;Max_cycle;Signal;HPM_P1;HPM_P2
2024/01/12 00:00:00;;;;;;;13.73;6.28;;;;;;;1.67;69.73;99816.56;5078151;28;20112;-63
2024/01/12 00:02:25;;;;;;;10.10;4.35;;;;;;;1.75;69.02;99811.66;5077533;28;20365;-65
2024/01/12 00:04:51;;;;;;;9.77;5.43;;;;;;;1.76;68.27;99811.56;5077565;28;20036;-64
2024/01/12 00:07:16;;;;;;;7.70;4.40;;;;;;;1.75;68.32;99811.66;5077944;28;20082;-63
2024/01/12 00:09:43;;;;;;;7.32;4.07;;;;;;;1.73;68.12;99808.34;5077296;28;20040;-63
2024/01/12 00:12:09;;;;;;;10.60;5.18;;;;;;;1.65;68.77;99815.84;5076846;28;20203;-62
2024/01/12 00:14:35;;;;;;;9.95;5.00;;;;;;;1.62;68.29;99806.44;5077751;28;20092;-65
2024/01/12 00:17:00;;;;;;;9.15;5.25;;;;;;;1.56;69.24;99814.69;5077299;28;20265;-65
2024/01/12 00:19:26;;;;;;;6.90;4.15;;;;;;;1.53;69.45;99809.69;5077614;28;20154;-63
2024/01/12 00:21:52;;;;;;;9.43;5.03;;;;;;;1.57;68.62;99813.75;5077361;28;20070;-63
2024/01/12 00:24:18;;;;;;;11.43;5.90;;;;;;;1.53;68.41;99813.13;5077590;28;20047;-62
2024/01/12 00:26:44;;;;;;;13.38;7.40;;;;;;;1.46;68.26;99818.88;5077790;28;20036;-65
2024/01/12 00:29:10;;;;;;;8.70;5.55;;;;;;;1.45;67.75;99822.41;5076684;28;20350;-63
2024/01/12 00:31:35;;;;;;;10.73;5.65;;;;;;;1.27;68.49;99833.13;5076925;28;20121;-63
2024/01/12 00:34:01;;;;;;;13.18;6.03;;;;;;;1.25;67.92;99827.19;5076771;28;20048;-63
2024/01/12 00:36:26;;;;;;;9.80;5.78;;;;;;;1.36;68.59;99823.03;5076538;28;20028;-65
2024/01/12 00:38:52;;;;;;;12.93;6.97;;;;;;;1.40;68.01;99827.09;5076307;28;20374;-65
2024/01/12 00:41:18;;;;;;;15.43;7.38;;;;;;;1.28;68.32;99824.38;5076359;28;20024;-63
2024/01/12 00:43:43;;;;;;;14.45;7.72;;;;;;;1.47;68.23;99816.16;5077004;28;20350;-63
2024/01/12 00:46:09;;;;;;;8.98;5.57;;;;;;;1.53;67.66;99810.50;5076733;28;20238;-63
2024/01/12 00:48:34;;;;;;;7.95;4.18;;;;;;;1.56;68.05;99804.25;5076597;28;20033;-65
2024/01/12 00:51:00;;;;;;;8.00;4.57;;;;;;;1.57;69.43;99790.28;5077465;28;20234;-63
2024/01/12 00:53:25;;;;;;;14.63;6.13;;;;;;;1.61;70.28;99794.34;5076724;28;20318;-62
2024/01/12 00:55:51;;;;;;;9.65;6.03;;;;;;;1.60;71.91;99792.66;5077132;28;20039;-63
2024/01/12 00:58:16;;;;;;;10.93;5.95;;;;;;;1.57;73.24;99787.66;5077107;28;20069;-64
2024/01/12 01:00:42;;;;;;;7.50;5.30;;;;;;;1.55;72.37;99802.59;5076410;28;20059;-64
2024/01/12 01:03:07;;;;;;;6.93;4.78;;;;;;;1.54;72.30;99808.75;5076942;28;20044;-62
2024/01/12 01:05:33;;;;;;;10.40;5.78;;;;;;;1.55;71.33;99805.19;5076168;28;20032;-63
2024/01/12 01:07:59;;;;;;;10.13;5.70;;;;;;;1.41;70.94;99794.84;5075812;28;20370;-64
2024/01/12 01:10:24;;;;;;;8.43;5.63;;;;;;;1.45;71.09;99830.22;5075992;28;20051;-65
2024/01/12 01:12:50;;;;;;;8.68;5.72;;;;;;;1.47;70.78;99823.13;5076566;28;20051;-63
2024/01/12 01:15:15;;;;;;;9.13;4.95;;;;;;;1.42;69.33;99820.84;5076783;28;20040;-63
2024/01/12 01:17:42;;;;;;;11.82;5.28;;;;;;;1.51;68.58;99819.38;5076661;28;20318;-63
2024/01/12 01:20:07;;;;;;;11.68;5.40;;;;;;;1.36;67.31;99805.59;5076852;28;20054;-64
2024/01/12 01:22:34;;;;;;;7.63;4.30;;;;;;;1.46;66.48;99816.25;5076776;28;20032;-62
2024/01/12 01:25:01;;;;;;;9.52;4.78;;;;;;;1.39;65.68;99817.59;5076832;28;20032;-62
2024/01/12 01:27:26;;;;;;;8.23;4.65;;;;;;;1.41;65.26;99826.16;5075909;28;20059;-62
2024/01/12 01:29:52;;;;;;;9.40;6.30;;;;;;;1.26;65.25;99812.34;5076245;28;20484;-64
2024/01/12 01:32:17;;;;;;;12.73;6.00;;;;;;;1.33;64.96;99807.56;5075816;28;20060;-64
2024/01/12 01:34:43;;;;;;;8.43;4.70;;;;;;;1.32;64.47;99805.91;5075824;28;20303;-62
2024/01/12 01:37:09;;;;;;;8.77;5.07;;;;;;;1.31;64.52;99807.69;5074675;28;20068;-62
2024/01/12 01:39:34;;;;;;;7.90;5.07;;;;;;;1.18;64.93;99793.78;5076344;28;20298;-65
2024/01/12 01:42:01;;;;;;;8.02;4.65;;;;;;;1.24;64.81;99789.00;5076800;28;20059;-64
2024/01/12 01:44:27;;;;;;;5.78;4.10;;;;;;;1.35;64.49;99790.88;5076414;28;20028;-62
2024/01/12 01:46:54;;;;;;;7.60;5.25;;;;;;;1.38;64.78;99790.66;5076132;28;20247;-62
2024/01/12 01:49:21;;;;;;;6.53;5.07;;;;;;;1.39;63.89;99786.28;5076293;28;20062;-62
2024/01/12 01:51:47;;;;;;;8.82;4.70;;;;;;;1.40;63.81;99788.78;5076744;28;20035;-64
2024/01/12 01:54:13;;;;;;;9.88;5.28;;;;;;;1.36;64.00;99784.72;5075641;28;20041;-62
2024/01/12 01:56:40;;;;;;;8.82;4.93;;;;;;;1.22;64.61;99777.81;5076797;28;20044;-62
2024/01/12 01:59:07;;;;;;;9.60;4.82;;;;;;;1.19;64.42;99767.59;5076411;28;20342;-62
2024/01/12 02:01:33;;;;;;;8.02;4.93;;;;;;;1.19;63.99;99767.59;5077176;28;20045;-64
2024/01/12 02:04:01;;;;;;;8.13;4.53;;;;;;;1.24;63.88;99767.28;5077167;28;20516;-62
2024/01/12 02:06:26;;;;;;;7.45;4.70;;;;;;;1.09;63.82;99773.53;5076771;28;20040;-63
2024/01/12 02:08:52;;;;;;;8.65;4.65;;;;;;;1.15;63.88;99771.34;5076685;28;20111;-62
2024/01/12 02:11:18;;;;;;;10.45;5.85;;;;;;;1.24;63.25;99770.72;5076629;28;20142;-65
2024/01/12 02:13:44;;;;;;;9.13;4.38;;;;;;;1.30;63.47;99768.66;5076693;28;20114;-63
2024/01/12 02:16:10;;;;;;;10.73;5.32;;;;;;;1.31;62.89;99762.50;5076745;28;20044;-62
2024/01/12 02:18:35;;;;;;;10.30;5.07;;;;;;;1.25;62.58;99761.97;5076743;28;20040;-62
2024/01/12 02:21:01;;;;;;;9.45;4.78;;;;;;;1.28;62.12;99751.31;5076410;28;20063;-64
2024/01/12 02:23:26;;;;;;;9.05;4.57;;;;;;;1.33;61.68;99756.22;5076227;28;20044;-62
2024/01/12 02:25:52;;;;;;;8.95;4.90;;;;;;;1.42;62.01;99765.22;5075939;28;20237;-63
2024/01/12 02:28:17;;;;;;;9.10;4.20;;;;;;;1.42;61.81;99758.22;5076182;28;20045;-62
2024/01/12 02:30:44;;;;;;;8.30;4.43;;;;;;;1.47;62.20;99756.13;5075764;28;20040;-64
2024/01/12 02:33:09;;;;;;;9.73;5.05;;;;;;;1.51;63.29;99757.59;5075705;28;20048;-64
2024/01/12 02:35:35;;;;;;;6.05;4.28;;;;;;;1.53;63.74;99750.50;5075812;28;20090;-63
2024/01/12 02:38:00;;;;;;;9.30;4.40;;;;;;;1.56;63.36;99758.13;5076829;28;20043;-62
2024/01/12 02:40:26;;;;;;;8.27;5.07;;;;;;;1.58;62.76;99739.75;5075917;28;20041;-64
2024/01/12 02:42:51;;;;;;;7.70;4.60;;;;;;;1.57;63.20;99741.53;5075032;28;20036;-64
2024/01/12 02:45:17;;;;;;;8.43;4.80;;;;;;;1.56;62.96;99739.00;5076427;28;20054;-62
2024/01/12 02:47:43;;;;;;;7.60;4.20;;;;;;;1.56;63.21;99739.84;5076578;28;20466;-63
2024/01/12 02:50:09;;;;;;;10.60;4.75;;;;;;;1.63;63.29;99728.97;5080162;28;20389;-62
2024/01/12 02:52:35;;;;;;;7.72;4.93;;;;;;;1.60;62.27;99736.09;5079729;28;20032;-64
2024/01/12 02:55:05;;;;;;;8.82;5.18;;;;;;;1.63;62.21;99731.59;5079372;28;20036;-62
2024/01/12 02:57:31;;;;;;;6.70;4.05;;;;;;;1.66;62.47;99732.22;5079929;28;20070;-62
2024/01/12 02:59:57;;;;;;;6.38;4.80;;;;;;;1.71;62.52;99735.34;5079065;28;20036;-62
2024/01/12 03:02:24;;;;;;;7.53;4.25;;;;;;;1.81;62.75;99746.00;5078843;28;20052;-64
2024/01/12 03:04:49;;;;;;;8.43;4.53;;;;;;;1.71;62.34;99734.50;5079249;28;20800;-64
2024/01/12 03:07:15;;;;;;;8.95;4.97;;;;;;;1.65;62.17;99735.78;5078773;28;20261;-62
2024/01/12 03:09:40;;;;;;;7.10;4.50;;;;;;;1.68;62.18;99745.16;5079101;28;20334;-62
2024/01/12 03:12:06;;;;;;;8.65;4.50;;;;;;;1.67;61.76;99746.09;5079155;28;20070;-64
2024/01/12 03:14:31;;;;;;;9.30;4.88;;;;;;;1.66;61.54;99740.06;5078814;28;20032;-64
2024/01/12 03:16:57;;;;;;;7.85;5.22;;;;;;;1.62;61.59;99729.94;5078770;28;20029;-62
2024/01/12 03:19:22;;;;;;;8.57;4.93;;;;;;;1.67;61.50;99739.09;5078702;28;20384;-63
2024/01/12 03:21:48;;;;;;;11.73;5.38;;;;;;;1.63;61.47;99735.03;5078824;28;20062;-62
2024/01/12 03:24:13;;;;;;;8.93;5.13;;;;;;;1.60;62.00;99735.25;5079040;28;20242;-65
2024/01/12 03:26:39;;;;;;;10.38;5.72;;;;;;;1.64;62.57;99738.50;5079084;28;20334;-64
2024/01/12 03:29:04;;;;;;;8.68;4.47;;;;;;;1.57;62.91;99740.69;5078922;28;20091;-63
2024/01/12 03:31:30;;;;;;;9.40;5.03;;;;;;;1.60;63.46;99743.91;5079998;28;20330;-62
2024/01/12 03:33:56;;;;;;;6.68;4.45;;;;;;;1.53;64.02;99739.22;5078918;28;20113;-62
2024/01/12 03:36:23;;;;;;;9.40;5.05;;;;;;;1.51;63.30;99754.16;5078545;28;20322;-64
2024/01/12 03:38:49;;;;;;;10.85;5.57;;;;;;;1.50;62.95;99748.09;5078923;28;20516;-64
2024/01/12 03:41:14;;;;;;;7.18;4.70;;;;;;;1.42;63.00;99753.00;5078925;28;20074;-62
2024/01/12 03:43:40;;;;;;;7.20;4.80;;;;;;;1.33;62.53;99756.22;5079031;28;20048;-62
2024/01/12 03:46:06;;;;;;;10.73;5.15;;;;;;;1.33;63.36;99758.00;5077415;28;20094;-63
2024/01/12 03:48:32;;;;;;;7.55;4.85;;;;;;;1.14;63.29;99755.78;5078264;28;20056;-64
2024/01/12 03:50:57;;;;;;;9.40;4.70;;;;;;;1.12;64.01;99755.06;5078779;28;20317;-62
2024/01/12 03:53:22;;;;;;;10.65;4.90;;;;;;;1.22;63.40;99764.78;5079302;28;20096;-62
2024/01/12 03:55:48;;;;;;;9.25;5.55;;;;;;;1.19;63.25;99758.94;5079138;28;20130;-62
2024/01/12 03:58:14;;;;;;;10.68;5.90;;;;;;;1.27;63.24;99757.47;5078490;28;20044;-64
2024/01/12 04:00:40;;;;;;;10.90;5.88;;;;;;;1.36;62.09;99760.41;5076879;28;20033;-64
2024/01/12 04:03:05;;;;;;;9.57;4.63;;;;;;;1.30;62.16;99764.25;5077575;28;20365;-62
2024/01/12 04:05:31;;;;;;;9.48;5.05;;;;;;;1.28;62.20;99763.53;5077837;28;20029;-62
2024/01/12 04:07:56;;;;;;;8.95;4.85;;;;;;;1.25;62.12;99763.75;5078453;28;20041;-64
2024/01/12 04:10:22;;;;;;;10.95;5.10;;;;;;;1.24;61.70;99772.50;5077823;28;20036;-64
2024/01/12 04:12:47;;;;;;;7.50;4.38;;;;;;;1.14;62.18;99776.66;5078255;28;20045;-63
2024/01/12 04:15:12;;;;;;;10.75;5.45;;;;;;;1.01;62.50;99770.56;5078177;28;20035;-63
2024/01/12 04:17:38;;;;;;;10.00;5.55;;;;;;;1.04;62.88;99771.22;5077778;28;20036;-62
2024/01/12 04:20:03;;;;;;;8.90;5.18;;;;;;;1.08;62.54;99771.84;5078628;28;20620;-64
2024/01/12 04:22:29;;;;;;;10.25;5.72;;;;;;;1.06;62.83;99777.16;5078006;28;20321;-64
2024/01/12 04:24:55;;;;;;;12.40;5.75;;;;;;;1.04;62.19;99768.59;5077566;28;20055;-62
2024/01/12 04:27:21;;;;;;;9.60;5.40;;;;;;;1.02;62.87;99775.66;5077306;28;20354;-63
2024/01/12 04:29:46;;;;;;;12.38;6.63;;;;;;;1.03;62.98;99776.50;5077624;28;20078;-62
2024/01/12 04:32:12;;;;;;;10.88;6.43;;;;;;;1.02;62.86;99783.47;5078066;28;20044;-64
2024/01/12 04:34:37;;;;;;;10.88;5.57;;;;;;;1.10;62.78;99783.00;5078584;28;20036;-64
2024/01/12 04:37:04;;;;;;;10.90;5.82;;;;;;;1.21;62.71;99780.53;5078401;28;20326;-62
2024/01/12 04:39:31;;;;;;;9.07;5.38;;;;;;;1.15;62.09;99775.72;5078114;28;20032;-63
2024/01/12 04:41:56;;;;;;;10.85;5.63;;;;;;;1.07;62.29;99771.00;5076976;28;20071;-62
2024/01/12 04:44:22;;;;;;;11.88;5.38;;;;;;;1.15;61.85;99781.78;5077417;28;20437;-64
2024/01/12 04:46:47;;;;;;;8.45;5.32;;;;;;;1.11;62.05;99779.47;5077915;28;20231;-64
2024/01/12 04:49:13;;;;;;;10.23;5.43;;;;;;;1.10;62.70;99775.19;5077483;28;20097;-62
2024/01/12 04:51:39;;;;;;;10.88;5.65;;;;;;;1.01;62.36;99771.38;5077642;28;20375;-62
2024/01/12 04:54:04;;;;;;;12.38;5.75;;;;;;;1.02;62.08;99786.09;5077590;28;20040;-63
2024/01/12 04:56:29;;;;;;;10.23;5.85;;;;;;;0.98;62.40;99781.19;5077887;28;20326;-64
2024/01/12 04:58:55;;;;;;;10.68;5.53;;;;;;;0.91;61.97;99781.59;5077254;28;20048;-63
2024/01/12 05:01:21;;;;;;;11.55;6.22;;;;;;;0.88;61.56;99794.81;5077114;28;20094;-63
2024/01/12 05:03:46;;;;;;;11.73;6.38;;;;;;;0.85;62.26;99799.41;5077339;28;20036;-63
2024/01/12 05:06:12;;;;;;;10.15;5.07;;;;;;;0.90;62.12;99802.53;5076993;28;20066;-65
2024/01/12 05:08:37;;;;;;;10.80;6.32;;;;;;;0.99;62.41;99804.53;5077190;28;20037;-64
2024/01/12 05:11:03;;;;;;;10.85;6.15;;;;;;;0.99;61.88;99811.53;5077467;28;20040;-62
2024/01/12 05:13:29;;;;;;;10.40;6.00;;;;;;;1.01;61.60;99805.28;5077812;28;20058;-62
2024/01/12 05:15:55;;;;;;;14.75;8.57;;;;;;;0.99;62.33;99801.94;5076848;28;20117;-64
2024/01/12 05:18:21;;;;;;;10.60;6.38;;;;;;;1.00;62.62;99801.00;5076831;28;20177;-64
2024/01/12 05:20:47;;;;;;;14.98;6.78;;;;;;;1.04;62.33;99789.47;5077445;28;20055;-63
2024/01/12 05:23:12;;;;;;;11.70;6.35;;;;;;;1.01;61.32;99794.84;5077093;28;20040;-63
2024/01/12 05:25:38;;;;;;;11.85;6.22;;;;;;;1.02;61.31;99796.53;5077268;28;20032;-64
2024/01/12 05:28:03;;;;;;;12.23;6.72;;;;;;;1.07;61.00;99797.09;5077568;28;20032;-64
2024/01/12 05:30:30;;;;;;;11.68;6.10;;;;;;;1.09;60.30;99786.56;5077011;28;20036;-62
2024/01/12 05:32:55;;;;;;;10.77;6.70;;;;;;;1.13;60.38;99795.84;5077303;28;20214;-62
2024/01/12 05:35:21;;;;;;;8.90;5.38;;;;;;;1.09;60.19;99799.59;5076917;28;20036;-64
2024/01/12 05:37:46;;;;;;;12.55;5.72;;;;;;;1.01;59.52;99804.44;5076365;28;20063;-64
2024/01/12 05:40:12;;;;;;;11.35;6.20;;;;;;;1.03;60.18;99802.56;5076949;28;20113;-63
2024/01/12 05:42:37;;;;;;;9.57;6.18;;;;;;;1.03;60.23;99803.41;5077078;28;20029;-63
2024/01/12 05:45:03;;;;;;;9.95;6.07;;;;;;;0.99;59.87;99808.94;5076586;28;20044;-64
2024/01/12 05:47:28;;;;;;;9.55;5.47;;;;;;;0.91;59.88;99807.66;5077019;28;20384;-64
2024/01/12 05:49:54;;;;;;;9.48;5.43;;;;;;;0.87;60.43;99808.78;5076732;28;20043;-63
2024/01/12 05:52:20;;;;;;;10.15;5.75;;;;;;;0.85;61.03;99807.22;5076876;28;20096;-63
2024/01/12 05:54:45;;;;;;;7.90;4.90;;;;;;;0.83;60.41;99817.75;5076527;28;20337;-64
2024/01/12 05:57:10;;;;;;;9.70;5.60;;;;;;;0.87;60.23;99818.38;5076271;28;20036;-64
2024/01/12 05:59:36;;;;;;;13.00;6.95;;;;;;;0.82;60.70;99821.28;5077190;28;20096;-62
2024/01/12 06:02:03;;;;;;;10.25;5.97;;;;;;;0.88;60.12;99827.88;5076946;28;20320;-64
2024/01/12 06:04:28;;;;;;;12.85;6.75;;;;;;;0.90;60.38;99826.84;5076514;28;20070;-65
2024/01/12 06:06:54;;;;;;;10.77;5.95;;;;;;;0.95;60.15;99835.19;5075794;28;20100;-64
2024/01/12 06:09:20;;;;;;;12.90;6.70;;;;;;;0.93;60.22;99833.63;5075899;28;20044;-63
2024/01/12 06:11:45;;;;;;;15.32;7.65;;;;;;;0.90;60.11;99832.06;5076776;28;20092;-62
2024/01/12 06:14:11;;;;;;;12.18;7.75;;;;;;;0.92;59.89;99835.41;5076702;28;20056;-64
2024/01/12 06:16:37;;;;;;;14.73;7.40;;;;;;;1.02;60.28;99840.84;5076497;28;20100;-64
2024/01/12 06:19:02;;;;;;;10.85;6.35;;;;;;;1.07;60.22;99840.59;5076112;28;20386;-62
2024/01/12 06:21:27;;;;;;;11.85;6.35;;;;;;;0.86;59.50;99812.31;5076657;28;20025;-62
2024/01/12 06:23:53;;;;;;;10.55;6.13;;;;;;;1.06;59.85;99834.53;5078655;28;20138;-63
2024/01/12 06:26:18;;;;;;;10.40;6.00;;;;;;;1.06;60.12;99836.31;5079779;28;20032;-64
2024/01/12 06:28:44;;;;;;;11.55;6.38;;;;;;;1.15;60.22;99841.75;5079847;28;20032;-64
2024/01/12 06:31:09;;;;;;;12.02;7.03;;;;;;;1.17;60.40;99845.09;5080384;28;20024;-62
2024/01/12 06:33:35;;;;;;;12.10;6.88;;;;;;;1.15;59.85;99857.41;5080298;28;20065;-63
2024/01/12 06:36:04;;;;;;;11.80;6.78;;;;;;;1.17;60.15;99858.13;5080010;28;20269;-64
2024/01/12 06:38:29;;;;;;;13.55;7.40;;;;;;;1.23;59.58;99862.13;5079681;28;20039;-64
2024/01/12 06:40:55;;;;;;;12.60;6.32;;;;;;;1.28;59.87;99875.69;5079911;28;20036;-63
2024/01/12 06:43:20;;;;;;;11.48;6.45;;;;;;;1.41;59.44;99883.56;5079910;28;20234;-63
2024/01/12 06:45:46;;;;;;;12.10;6.82;;;;;;;1.53;59.89;99886.19;5079767;28;20032;-63
2024/01/12 06:48:12;;;;;;;11.45;6.43;;;;;;;1.61;59.54;99888.28;5079683;28;20344;-64
2024/01/12 06:50:37;;;;;;;10.85;6.25;;;;;;;1.66;59.26;99882.78;5079582;28;20051;-63
2024/01/12 06:53:08;;;;;;;10.73;6.75;;;;;;;1.83;59.26;99890.31;5079821;28;20040;-62
2024/01/12 06:55:34;;;;;;;11.63;6.75;;;;;;;1.86;59.31;99903.16;5079567;28;20062;-62
2024/01/12 06:57:59;;;;;;;13.35;6.68;;;;;;;1.78;59.65;99903.66;5079271;28;20040;-64
2024/01/12 07:00:25;;;;;;;9.23;6.13;;;;;;;1.93;58.68;99909.63;5079037;28;20069;-64
2024/01/12 07:02:50;;;;;;;12.30;7.07;;;;;;;2.06;58.71;99899.19;5079626;28;20327;-63
2024/01/12 07:05:17;;;;;;;14.55;6.70;;;;;;;2.17;57.81;99905.41;5079161;28;20032;-62
2024/01/12 07:07:43;;;;;;;11.73;6.50;;;;;;;2.28;58.13;99914.28;5079593;28;20036;-62
2024/01/12 07:10:11;;;;;;;12.70;7.18;;;;;;;2.38;57.89;99928.38;5079721;28;20040;-63
2024/01/12 07:12:37;;;;;;;12.70;6.93;;;;;;;2.53;57.42;99916.88;5079077;28;20273;-64
2024/01/12 07:15:04;;;;;;;16.13;7.97;;;;;;;2.61;57.64;99918.94;5078248;28;20139;-62
2024/01/12 07:17:30;;;;;;;11.70;7.00;;;;;;;2.75;55.85;99924.03;5076427;28;20044;-63
2024/01/12 07:19:55;;;;;;;11.63;7.22;;;;;;;2.89;55.83;99926.50;5078209;28;20036;-62
2024/01/12 07:22:21;;;;;;;12.38;7.00;;;;;;;2.94;54.45;99923.56;5076054;28;20085;-62
2024/01/12 07:24:46;;;;;;;11.63;7.15;;;;;;;3.14;55.51;99917.78;5076907;28;20383;-63
2024/01/12 07:27:11;;;;;;;15.95;7.80;;;;;;;3.27;55.41;99923.78;5077605;28;20041;-64
2024/01/12 07:29:37;;;;;;;12.35;7.85;;;;;;;3.24;54.51;99915.31;5077493;28;20093;-65
2024/01/12 07:32:03;;;;;;;11.73;6.40;;;;;;;3.15;54.37;99912.44;5076898;28;20054;-62
2024/01/12 07:34:28;;;;;;;13.82;7.10;;;;;;;3.02;54.28;99916.84;5076683;28;20071;-63
2024/01/12 07:36:53;;;;;;;13.80;7.57;;;;;;;2.95;55.17;99928.69;5077261;28;20047;-63
2024/01/12 07:39:19;;;;;;;13.63;7.55;;;;;;;2.85;55.35;99922.44;5077260;28;20042;-63
2024/01/12 07:41:44;;;;;;;14.93;7.45;;;;;;;2.75;55.50;99931.88;5077719;28;20628;-65
2024/01/12 07:44:11;;;;;;;16.73;7.43;;;;;;;2.64;55.95;99932.63;5076849;28;20058;-63
2024/01/12 07:46:36;;;;;;;12.77;7.10;;;;;;;2.46;56.71;99933.91;5076504;28;20044;-63
2024/01/12 07:49:02;;;;;;;14.73;8.10;;;;;;;2.56;58.00;99933.16;5077198;28;20044;-63
2024/01/12 07:51:27;;;;;;;13.30;7.10;;;;;;;2.55;56.74;99928.88;5077227;28;20037;-63
2024/01/12 07:53:53;;;;;;;11.88;6.93;;;;;;;2.51;57.44;99939.66;5077303;28;20974;-63
2024/01/12 07:56:18;;;;;;;11.55;6.88;;;;;;;2.58;57.64;99940.91;5075782;28;20043;-63
2024/01/12 07:58:44;;;;;;;17.42;7.82;;;;;;;2.61;57.14;99939.84;5077586;28;20037;-64
2024/01/12 08:01:14;;;;;;;11.18;6.68;;;;;;;2.61;55.94;99948.53;5077165;28;20036;-64
2024/01/12 08:03:44;;;;;;;11.80;7.22;;;;;;;2.67;55.25;99955.13;5076679;28;20103;-62
2024/01/12 08:06:10;;;;;;;12.50;7.05;;;;;;;2.89;55.35;99952.66;5076665;28;20040;-62
2024/01/12 08:08:36;;;;;;;13.98;7.72;;;;;;;3.02;55.63;99957.88;5077055;28;20138;-62
2024/01/12 08:11:01;;;;;;;11.40;6.82;;;;;;;3.12;55.90;99969.34;5077356;28;20308;-64
2024/01/12 08:13:27;;;;;;;15.10;7.45;;;;;;;3.18;55.62;99972.38;5076663;28;20040;-64
2024/01/12 08:15:52;;;;;;;13.80;6.97;;;;;;;3.21;54.85;99976.56;5077034;28;20223;-63
2024/01/12 08:18:22;;;;;;;13.90;7.57;;;;;;;3.22;55.41;99988.72;5076546;28;20223;-62
2024/01/12 08:20:48;;;;;;;15.32;7.72;;;;;;;3.13;55.81;99986.75;5077017;28;20032;-63
2024/01/12 08:23:15;;;;;;;12.10;7.82;;;;;;;3.12;55.83;99992.91;5076618;28;20043;-65
2024/01/12 08:25:40;;;;;;;12.50;6.60;;;;;;;3.03;56.16;99993.53;5076610;28;20140;-64
2024/01/12 08:28:06;;;;;;;12.18;7.50;;;;;;;3.01;56.65;99998.03;5076717;28;20499;-62
2024/01/12 08:30:33;;;;;;;12.27;7.45;;;;;;;3.00;56.61;100001.59;5076420;28;20047;-63
2024/01/12 08:32:59;;;;;;;15.45;7.00;;;;;;;3.01;56.07;99995.44;5076811;28;20077;-63
2024/01/12 08:35:26;;;;;;;13.90;7.63;;;;;;;2.98;56.08;100000.88;5076239;28;20028;-63
2024/01/12 08:37:51;;;;;;;16.75;8.38;;;;;;;3.06;55.50;100003.78;5075778;28;20329;-64
2024/01/12 08:40:16;;;;;;;13.48;6.60;;;;;;;3.07;55.43;100003.69;5075797;28;20039;-63
2024/01/12 08:42:42;;;;;;;14.35;7.78;;;;;;;3.20;55.92;100006.31;5076017;28;20036;-63
2024/01/12 08:45:08;;;;;;;18.55;7.00;;;;;;;3.19;55.61;100010.69;5075174;28;20400;-63
2024/01/12 08:47:33;;;;;;;11.57;7.65;;;;;;;3.15;55.91;100004.00;5074874;28;20029;-64
2024/01/12 08:49:59;;;;;;;15.02;7.85;;;;;;;3.19;56.22;100012.47;5075227;28;20036;-65
2024/01/12 08:52:24;;;;;;;15.48;8.40;;;;;;;3.25;56.00;100013.81;5075090;28;20047;-62
2024/01/12 08:54:50;;;;;;;14.95;8.77;;;;;;;3.29;55.98;100016.13;5075381;28;20045;-62
2024/01/12 08:57:16;;;;;;;18.48;7.13;;;;;;;3.38;55.43;100018.06;5075433;28;20103;-63
2024/01/12 08:59:41;;;;;;;14.98;7.60;;;;;;;3.44;54.77;100016.81;5075451;28;20436;-63
2024/01/12 09:02:06;;;;;;;12.90;7.30;;;;;;;3.51;54.78;100018.88;5075353;28;20067;-63
2024/01/12 09:04:32;;;;;;;11.27;6.78;;;;;;;3.69;53.21;100016.69;5075074;28;20062;-65
2024/01/12 09:06:57;;;;;;;15.52;6.93;;;;;;;3.84;53.49;100018.19;5075063;28;20040;-65
2024/01/12 09:09:23;;;;;;;10.65;6.45;;;;;;;4.08;52.53;100027.81;5074332;28;20044;-63
2024/01/12 09:11:49;;;;;;;14.27;6.78;;;;;;;4.23;51.77;100031.09;5075745;28;20080;-62
2024/01/12 09:14:14;;;;;;;11.20;5.60;;;;;;;4.29;50.97;100034.09;5074655;28;20383;-63
2024/01/12 09:16:40;;;;;;;15.15;6.75;;;;;;;4.37;51.19;100039.59;5074722;28;20055;-65
2024/01/12 09:19:06;;;;;;;9.63;6.47;;;;;;;4.44;50.57;100037.34;5074857;28;20032;-64
2024/01/12 09:21:32;;;;;;;12.68;6.28;;;;;;;4.41;49.67;100033.19;5074414;28;20101;-63
2024/01/12 09:23:57;;;;;;;10.07;5.88;;;;;;;4.51;50.30;100042.97;5074611;28;20032;-63
2024/01/12 09:26:23;;;;;;;10.25;6.57;;;;;;;4.57;51.09;100039.88;5074639;28;20028;-62
2024/01/12 09:28:48;;;;;;;11.73;5.70;;;;;;;4.63;49.72;100039.41;5075563;28;20042;-63
2024/01/12 09:31:14;;;;;;;9.40;5.28;;;;;;;4.66;48.49;100037.41;5075832;28;20040;-64
2024/01/12 09:33:39;;;;;;;7.22;4.82;;;;;;;4.70;48.50;100028.34;5075883;28;20036;-65
2024/01/12 09:36:05;;;;;;;10.80;5.70;;;;;;;4.70;48.44;100036.22;5075798;28;20077;-63
2024/01/12 09:38:31;;;;;;;10.02;5.97;;;;;;;4.75;48.43;100035.84;5075655;28;20036;-63
2024/01/12 09:40:58;;;;;;;10.13;6.22;;;;;;;4.77;47.87;100041.81;5076251;28;20024;-63
2024/01/12 09:43:28;;;;;;;10.43;5.60;;;;;;;4.86;48.72;100048.16;5075027;28;20078;-64
2024/01/12 09:46:04;;;;;;;12.50;6.40;;;;;;;4.89;48.72;100046.13;5075870;28;20033;-63
2024/01/12 09:48:30;;;;;;;13.00;6.93;;;;;;;5.03;49.84;100048.50;5077514;28;20039;-62
2024/01/12 09:50:56;;;;;;;12.30;6.68;;;;;;;5.13;49.60;100051.25;5075791;28;20040;-62
2024/01/12 09:53:22;;;;;;;14.10;6.85;;;;;;;5.14;48.67;100050.28;5074116;28;20230;-64
2024/01/12 09:55:48;;;;;;;13.35;6.78;;;;;;;5.16;49.22;100048.38;5075380;28;20107;-65
2024/01/12 09:58:16;;;;;;;9.50;5.32;;;;;;;5.25;48.57;100060.81;5076363;28;20047;-63
2024/01/12 10:00:44;;;;;;;10.13;5.80;;;;;;;5.30;48.22;100057.84;5078492;28;20277;-63
2024/01/12 10:03:10;;;;;;;15.40;5.82;;;;;;;5.26;48.86;100054.63;5079064;28;20090;-62
2024/01/12 10:05:37;;;;;;;11.38;6.15;;;;;;;5.51;48.91;100045.63;5078728;28;20092;-63
2024/01/12 10:08:04;;;;;;;12.23;6.40;;;;;;;5.65;47.65;100052.41;5078512;28;20041;-65
2024/01/12 10:10:29;;;;;;;11.07;5.15;;;;;;;5.75;46.57;100061.22;5079376;28;20043;-63
2024/01/12 10:12:55;;;;;;;10.68;5.20;;;;;;;5.79;46.20;100067.91;5079663;28;20029;-63
2024/01/12 10:15:20;;;;;;;9.75;5.22;;;;;;;5.84;46.03;100057.84;5077923;28;20275;-63
2024/01/12 10:17:48;;;;;;;12.30;5.53;;;;;;;5.83;46.71;100053.56;5078568;28;20040;-62
2024/01/12 10:20:15;;;;;;;9.57;5.38;;;;;;;5.83;45.39;100048.28;5078568;28;20242;-65
2024/01/12 10:22:40;;;;;;;7.75;4.82;;;;;;;5.88;45.61;100055.81;5078485;28;20045;-64
2024/01/12 10:25:07;;;;;;;10.30;5.18;;;;;;;5.60;45.16;100046.69;5078585;28;20089;-63
2024/01/12 10:27:32;;;;;;;10.50;6.10;;;;;;;5.70;45.49;100042.38;5078214;28;20032;-63
2024/01/12 10:29:58;;;;;;;19.52;10.02;;;;;;;5.67;46.41;100043.44;5078050;28;20092;-63
2024/01/12 10:32:24;;;;;;;11.05;6.00;;;;;;;5.64;46.79;100046.31;5076682;28;20071;-62
2024/01/12 10:34:52;;;;;;;11.13;5.97;;;;;;;5.66;45.95;100048.81;5077804;28;20041;-64
2024/01/12 10:37:19;;;;;;;8.43;5.22;;;;;;;5.72;46.88;100050.94;5078513;28;20043;-65
2024/01/12 10:39:47;;;;;;;10.40;5.70;;;;;;;5.82;47.44;100049.25;5078328;28;20033;-64
2024/01/12 10:42:14;;;;;;;9.30;5.32;;;;;;;5.64;43.67;100048.09;5078726;28;20059;-63
2024/01/12 10:44:41;;;;;;;8.48;5.32;;;;;;;5.76;44.20;100055.00;5078288;28;20036;-64
2024/01/12 10:47:17;;;;;;;10.93;5.32;;;;;;;5.82;44.13;100059.75;5077377;28;20305;-64
2024/01/12 10:49:45;;;;;;;11.90;5.97;;;;;;;5.94;44.91;100053.53;5077452;28;20044;-63
2024/01/12 10:52:21;;;;;;;8.50;5.88;;;;;;;5.89;45.05;100054.84;5077699;28;20039;-64
2024/01/12 10:55:15;;;;;;;10.77;5.63;;;;;;;5.91;44.50;100045.91;5077013;28;20038;-65
2024/01/12 10:57:42;;;;;;;9.30;5.25;;;;;;;5.87;44.61;100043.63;5076677;28;20115;-62
2024/01/12 11:00:10;;;;;;;8.95;5.43;;;;;;;5.71;44.33;100046.66;5078055;28;20072;-64
2024/01/12 11:02:37;;;;;;;8.10;5.35;;;;;;;5.83;44.66;100047.47;5076263;28;20052;-63
2024/01/12 11:05:07;;;;;;;10.90;5.80;;;;;;;5.74;45.66;100042.00;5076752;28;20078;-63
2024/01/12 11:07:34;;;;;;;12.18;7.13;;;;;;;5.75;46.18;100040.19;5076710;28;20067;-65
2024/01/12 11:10:00;;;;;;;13.20;6.43;;;;;;;5.84;45.87;100041.25;5075743;28;20036;-63
2024/01/12 11:12:37;;;;;;;11.15;6.22;;;;;;;5.94;46.09;100039.56;5076091;28;20109;-63
2024/01/12 11:15:04;;;;;;;10.27;6.10;;;;;;;5.86;46.15;100037.53;5076171;28;20047;-63
2024/01/12 11:17:33;;;;;;;9.23;5.97;;;;;;;5.86;46.67;100029.66;5075966;28;20044;-65
2024/01/12 11:20:17;;;;;;;11.95;6.93;;;;;;;5.91;45.49;100045.06;5075367;28;20032;-65
2024/01/12 11:22:46;;;;;;;9.02;5.63;;;;;;;5.68;45.09;100049.53;5076721;28;20233;-63
2024/01/12 11:25:13;;;;;;;10.30;5.60;;;;;;;5.73;46.82;100042.13;5075939;28;20369;-63
2024/01/12 11:27:41;;;;;;;10.65;5.43;;;;;;;5.92;45.28;100049.38;5074489;28;20059;-64